sensor_id;sensor_type;location;lat;lon;timestamp;pressure;altitude;pressure_sealevel;temperature;humidity
28606;BME280;46498;49.968;7.754;2022-09-03T00:02:31;96753.00;;;16.16;46.19
28606;BME280;46498;49.968;7.754;2022-09-03T00:15:44;96751.00;;;15.99;46.56
28606;BME280;46498;49.968;7.754;2022-09-03T00:20:55;96753.00;;;15.98;46.66
28606;BME280;46498;49.968;7.754;2022-09-03T00:26:24;96751.00;;;15.99;46.60
28606;BME280;46498;49.968;7.754;2022-09-03T00:31:31;96752.00;;;15.89;46.90
28606;BME280;46498;49.968;7.754;2022-09-03T00:36:44;96755.00;;;15.93;46.82
28606;BME280;46498;49.968;7.754;2022-09-03T00:50:32;96747.00;;;15.85;47.09
28606;BME280;46498;49.968;7.754;2022-09-03T01:00:42;96743.00;;;15.78;47.37
28606;BME280;46498;49.968;7.754;2022-09-03T01:06:13;96748.00;;;15.79;47.71
28606;BME280;46498;49.968;7.754;2022-09-03T01:12:00;96756.00;;;15.50;48.55
28606;BME280;46498;49.968;7.754;2022-09-03T01:24:33;96754.00;;;15.27;49.44
28606;BME280;46498;49.968;7.754;2022-09-03T01:29:57;96747.00;;;15.21;49.77
28606;BME280;46498;49.968;7.754;2022-09-03T01:35:09;96739.00;;;15.27;49.71
28606;BME280;46498;49.968;7.754;2022-09-03T01:40:31;96741.00;;;15.23;50.15
28606;BME280;46498;49.968;7.754;2022-09-03T01:46:25;96725.00;;;15.26;49.78
28606;BME280;46498;49.968;7.754;2022-09-03T01:51:33;96730.00;;;15.56;49.29
28606;BME280;46498;49.968;7.754;2022-09-03T02:03:40;96728.00;;;15.57;49.30
28606;BME280;46498;49.968;7.754;2022-09-03T02:08:42;96732.00;;;15.39;50.14
28606;BME280;46498;49.968;7.754;2022-09-03T02:13:47;96736.00;;;15.21;50.65
28606;BME280;46498;49.968;7.754;2022-09-03T02:18:53;96742.00;;;15.16;50.85
28606;BME280;46498;49.968;7.754;2022-09-03T02:23:54;96737.00;;;15.29;50.85
28606;BME280;46498;49.968;7.754;2022-09-03T02:28:56;96724.00;;;15.35;50.30
28606;BME280;46498;49.968;7.754;2022-09-03T02:33:57;96722.00;;;15.46;49.82
28606;BME280;46498;49.968;7.754;2022-09-03T02:38:58;96721.00;;;15.52;49.53
28606;BME280;46498;49.968;7.754;2022-09-03T02:44:34;96739.00;;;15.41;49.88
28606;BME280;46498;49.968;7.754;2022-09-03T02:49:38;96735.00;;;15.47;49.97
28606;BME280;46498;49.968;7.754;2022-09-03T02:54:39;96745.00;;;15.43;50.30
28606;BME280;46498;49.968;7.754;2022-09-03T02:59:41;96742.00;;;15.33;50.47
28606;BME280;46498;49.968;7.754;2022-09-03T03:04:44;96725.00;;;15.43;50.46
28606;BME280;46498;49.968;7.754;2022-09-03T03:09:45;96732.00;;;15.40;50.53
28606;BME280;46498;49.968;7.754;2022-09-03T03:14:45;96736.00;;;15.46;50.52
28606;BME280;46498;49.968;7.754;2022-09-03T03:19:46;96730.00;;;15.41;50.69
28606;BME280;46498;49.968;7.754;2022-09-03T03:24:48;96723.00;;;15.34;51.06
28606;BME280;46498;49.968;7.754;2022-09-03T03:29:50;96717.00;;;15.32;51.06
28606;BME280;46498;49.968;7.754;2022-09-03T03:34:51;96715.00;;;15.33;51.35
28606;BME280;46498;49.968;7.754;2022-09-03T03:39:52;96710.00;;;15.19;51.78
28606;BME280;46498;49.968;7.754;2022-09-03T03:44:54;96709.00;;;15.29;51.71
28606;BME280;46498;49.968;7.754;2022-09-03T03:49:56;96711.00;;;15.25;51.82
28606;BME280;46498;49.968;7.754;2022-09-03T03:54:57;96721.00;;;15.31;51.89
28606;BME280;46498;49.968;7.754;2022-09-03T03:59:59;96722.00;;;15.16;52.35
28606;BME280;46498;49.968;7.754;2022-09-03T04:05:00;96722.00;;;15.25;52.35
28606;BME280;46498;49.968;7.754;2022-09-03T04:10:01;96726.00;;;15.24;52.49
28606;BME280;46498;49.968;7.754;2022-09-03T04:15:02;96728.00;;;15.29;52.61
28606;BME280;46498;49.968;7.754;2022-09-03T04:20:04;96721.00;;;15.38;52.39
28606;BME280;46498;49.968;7.754;2022-09-03T04:25:05;96718.00;;;15.44;52.45
28606;BME280;46498;49.968;7.754;2022-09-03T04:30:07;96721.00;;;15.24;53.16
28606;BME280;46498;49.968;7.754;2022-09-03T04:35:08;96715.00;;;15.29;53.24
28606;BME280;46498;49.968;7.754;2022-09-03T04:40:09;96722.00;;;15.34;53.29
28606;BME280;46498;49.968;7.754;2022-09-03T04:45:11;96726.00;;;15.42;53.33
28606;BME280;46498;49.968;7.754;2022-09-03T04:50:15;96732.00;;;15.35;53.77
28606;BME280;46498;49.968;7.754;2022-09-03T04:55:16;96737.00;;;15.22;54.34
28606;BME280;46498;49.968;7.754;2022-09-03T05:00:19;96737.00;;;15.19;54.56
28606;BME280;46498;49.968;7.754;2022-09-03T05:05:20;96746.00;;;15.16;54.88
28606;BME280;46498;49.968;7.754;2022-09-03T05:10:20;96743.00;;;15.12;55.40
28606;BME280;46498;49.968;7.754;2022-09-03T05:15:22;96753.00;;;15.06;56.39
28606;BME280;46498;49.968;7.754;2022-09-03T05:20:23;96757.00;;;15.01;57.93
28606;BME280;46498;49.968;7.754;2022-09-03T05:25:24;96746.00;;;14.71;60.57
28606;BME280;46498;49.968;7.754;2022-09-03T05:30:25;96752.00;;;14.75;63.28
28606;BME280;46498;49.968;7.754;2022-09-03T05:35:27;96768.00;;;14.57;64.33
28606;BME280;46498;49.968;7.754;2022-09-03T05:40:30;96770.00;;;14.12;70.82
28606;BME280;46498;49.968;7.754;2022-09-03T05:45:33;96781.00;;;14.06;72.00
28606;BME280;46498;49.968;7.754;2022-09-03T05:50:34;96782.00;;;14.02;72.25
28606;BME280;46498;49.968;7.754;2022-09-03T05:55:36;96787.00;;;14.00;74.35
28606;BME280;46498;49.968;7.754;2022-09-03T06:00:38;96778.00;;;14.17;74.35
28606;BME280;46498;49.968;7.754;2022-09-03T06:05:38;96778.00;;;14.04;73.33
28606;BME280;46498;49.968;7.754;2022-09-03T06:10:39;96778.00;;;14.19;72.12
28606;BME280;46498;49.968;7.754;2022-09-03T06:15:41;96784.00;;;14.26;74.41
28606;BME280;46498;49.968;7.754;2022-09-03T06:20:42;96780.00;;;14.33;74.83
28606;BME280;46498;49.968;7.754;2022-09-03T06:25:43;96776.00;;;14.25;73.39
28606;BME280;46498;49.968;7.754;2022-09-03T06:30:44;96769.00;;;14.19;72.67
28606;BME280;46498;49.968;7.754;2022-09-03T06:35:45;96772.00;;;14.34;71.74
28606;BME280;46498;49.968;7.754;2022-09-03T06:40:57;96767.00;;;14.16;70.16
28606;BME280;46498;49.968;7.754;2022-09-03T06:46:05;96774.00;;;14.18;69.88
28606;BME280;46498;49.968;7.754;2022-09-03T06:51:13;96765.00;;;14.43;71.27
28606;BME280;46498;49.968;7.754;2022-09-03T06:56:17;96766.00;;;14.32;70.13
28606;BME280;46498;49.968;7.754;2022-09-03T07:01:20;96784.00;;;14.43;69.25
28606;BME280;46498;49.968;7.754;2022-09-03T07:06:24;96783.00;;;14.40;71.38
28606;BME280;46498;49.968;7.754;2022-09-03T07:11:27;96792.00;;;14.24;71.73
28606;BME280;46498;49.968;7.754;2022-09-03T07:16:35;96781.00;;;14.08;74.42
28606;BME280;46498;49.968;7.754;2022-09-03T07:21:38;96795.00;;;14.01;76.51
28606;BME280;46498;49.968;7.754;2022-09-03T07:26:49;96786.00;;;13.69;78.99
28606;BME280;46498;49.968;7.754;2022-09-03T07:31:50;96799.00;;;13.94;80.75
28606;BME280;46498;49.968;7.754;2022-09-03T07:36:51;96792.00;;;13.78;80.36
28606;BME280;46498;49.968;7.754;2022-09-03T07:41:53;96795.00;;;13.88;80.16
28606;BME280;46498;49.968;7.754;2022-09-03T07:46:54;96785.00;;;13.70;81.03
28606;BME280;46498;49.968;7.754;2022-09-03T07:51:56;96800.00;;;13.89;79.17
28606;BME280;46498;49.968;7.754;2022-09-03T07:56:57;96799.00;;;13.94;76.90
28606;BME280;46498;49.968;7.754;2022-09-03T08:01:58;96794.00;;;13.89;77.00
28606;BME280;46498;49.968;7.754;2022-09-03T08:06:59;96805.00;;;14.08;76.14
28606;BME280;46498;49.968;7.754;2022-09-03T08:12:01;96800.00;;;14.21;74.64
28606;BME280;46498;49.968;7.754;2022-09-03T08:17:02;96802.00;;;14.24;75.80
28606;BME280;46498;49.968;7.754;2022-09-03T08:22:03;96809.00;;;14.23;76.39
28606;BME280;46498;49.968;7.754;2022-09-03T08:27:04;96811.00;;;14.33;74.94
28606;BME280;46498;49.968;7.754;2022-09-03T08:32:05;96824.00;;;14.33;75.77
28606;BME280;46498;49.968;7.754;2022-09-03T08:37:06;96832.00;;;14.22;75.54
28606;BME280;46498;49.968;7.754;2022-09-03T08:42:40;96841.00;;;14.08;77.69
28606;BME280;46498;49.968;7.754;2022-09-03T08:47:53;96848.00;;;13.85;80.01
28606;BME280;46498;49.968;7.754;2022-09-03T08:54:30;96851.00;;;13.97;80.80
28606;BME280;46498;49.968;7.754;2022-09-03T08:59:32;96846.00;;;14.15;80.53
28606;BME280;46498;49.968;7.754;2022-09-03T09:05:07;96858.00;;;14.21;79.96
28606;BME280;46498;49.968;7.754;2022-09-03T09:10:46;96852.00;;;14.49;81.31
28606;BME280;46498;49.968;7.754;2022-09-03T09:17:00;96852.00;;;14.36;80.94
28606;BME280;46498;49.968;7.754;2022-09-03T09:27:47;96848.00;;;14.80;81.31
28606;BME280;46498;49.968;7.754;2022-09-03T09:32:51;96851.00;;;15.02;80.35
28606;BME280;46498;49.968;7.754;2022-09-03T09:37:55;96860.00;;;15.04;81.77
28606;BME280;46498;49.968;7.754;2022-09-03T09:43:29;96862.00;;;15.28;80.75
28606;BME280;46498;49.968;7.754;2022-09-03T09:48:33;96858.00;;;15.13;83.69
28606;BME280;46498;49.968;7.754;2022-09-03T09:53:39;96870.00;;;15.00;85.39
28606;BME280;46498;49.968;7.754;2022-09-03T09:58:41;96883.00;;;15.19;85.54
28606;BME280;46498;49.968;7.754;2022-09-03T10:03:56;96875.00;;;15.12;88.47
28606;BME280;46498;49.968;7.754;2022-09-03T10:09:15;96881.00;;;15.42;88.07
28606;BME280;46498;49.968;7.754;2022-09-03T10:14:29;96882.00;;;15.57;88.43
28606;BME280;46498;49.968;7.754;2022-09-03T10:20:57;96874.00;;;15.77;88.30
28606;BME280;46498;49.968;7.754;2022-09-03T10:26:13;96864.00;;;16.60;85.57
28606;BME280;46498;49.968;7.754;2022-09-03T10:33:02;96862.00;;;17.30;82.41
28606;BME280;46498;49.968;7.754;2022-09-03T10:46:03;96867.00;;;17.58;79.25
28606;BME280;46498;49.968;7.754;2022-09-03T10:51:25;96871.00;;;17.60;80.14
28606;BME280;46498;49.968;7.754;2022-09-03T10:56:56;96863.00;;;17.32;81.79
28606;BME280;46498;49.968;7.754;2022-09-03T11:04:05;96856.00;;;17.73;79.68
28606;BME280;46498;49.968;7.754;2022-09-03T11:10:05;96856.00;;;18.42;78.25
28606;BME280;46498;49.968;7.754;2022-09-03T11:15:24;96857.00;;;18.62;75.38
28606;BME280;46498;49.968;7.754;2022-09-03T11:20:29;96850.00;;;18.78;75.67
28606;BME280;46498;49.968;7.754;2022-09-03T11:25:35;96848.00;;;18.37;77.79
28606;BME280;46498;49.968;7.754;2022-09-03T11:32:13;96848.00;;;18.12;79.89
28606;BME280;46498;49.968;7.754;2022-09-03T11:37:26;96845.00;;;19.66;74.36
28606;BME280;46498;49.968;7.754;2022-09-03T11:42:41;96835.00;;;20.33;68.66
28606;BME280;46498;49.968;7.754;2022-09-03T11:47:43;96831.00;;;19.93;70.31
28606;BME280;46498;49.968;7.754;2022-09-03T11:52:46;96830.00;;;20.15;69.24
28606;BME280;46498;49.968;7.754;2022-09-03T11:57:48;96818.00;;;20.24;69.51
28606;BME280;46498;49.968;7.754;2022-09-03T12:03:01;96827.00;;;19.40;73.00
28606;BME280;46498;49.968;7.754;2022-09-03T12:10:34;96821.00;;;18.62;77.52
28606;BME280;46498;49.968;7.754;2022-09-03T12:18:48;96833.00;;;18.72;77.17
28606;BME280;46498;49.968;7.754;2022-09-03T12:23:52;96826.00;;;18.95;77.86
28606;BME280;46498;49.968;7.754;2022-09-03T12:28:59;96811.00;;;19.11;77.17
28606;BME280;46498;49.968;7.754;2022-09-03T12:34:06;96814.00;;;19.20;75.84
28606;BME280;46498;49.968;7.754;2022-09-03T12:39:11;96810.00;;;19.13;77.13
28606;BME280;46498;49.968;7.754;2022-09-03T12:44:13;96813.00;;;19.02;77.98
28606;BME280;46498;49.968;7.754;2022-09-03T12:49:14;96812.00;;;19.73;75.21
28606;BME280;46498;49.968;7.754;2022-09-03T12:54:33;96816.00;;;19.40;76.40
28606;BME280;46498;49.968;7.754;2022-09-03T12:59:35;96823.00;;;19.01;78.42
28606;BME280;46498;49.968;7.754;2022-09-03T13:04:38;96816.00;;;18.88;79.82
28606;BME280;46498;49.968;7.754;2022-09-03T13:09:41;96823.00;;;19.00;79.58
28606;BME280;46498;49.968;7.754;2022-09-03T13:14:43;96832.00;;;19.29;78.29
28606;BME280;46498;49.968;7.754;2022-09-03T13:20:20;96831.00;;;19.55;76.95
28606;BME280;46498;49.968;7.754;2022-09-03T13:36:25;96831.00;;;20.60;71.06
28606;BME280;46498;49.968;7.754;2022-09-03T13:41:47;96823.00;;;21.10;67.65
28606;BME280;46498;49.968;7.754;2022-09-03T13:47:24;96826.00;;;20.58;70.03
28606;BME280;46498;49.968;7.754;2022-09-03T13:53:01;96829.00;;;20.17;71.82
28606;BME280;46498;49.968;7.754;2022-09-03T13:58:18;96816.00;;;20.52;70.90
28606;BME280;46498;49.968;7.754;2022-09-03T14:03:37;96813.00;;;20.59;70.30
28606;BME280;46498;49.968;7.754;2022-09-03T14:11:04;96804.00;;;20.26;71.37
28606;BME280;46498;49.968;7.754;2022-09-03T14:28:58;96837.00;;;19.45;76.77
28606;BME280;46498;49.968;7.754;2022-09-03T14:34:20;96835.00;;;19.31;77.78
28606;BME280;46498;49.968;7.754;2022-09-03T14:45:14;96822.00;;;19.67;76.22
28606;BME280;46498;49.968;7.754;2022-09-03T14:50:37;96820.00;;;19.50;76.95
28606;BME280;46498;49.968;7.754;2022-09-03T14:56:08;96831.00;;;19.62;76.84
28606;BME280;46498;49.968;7.754;2022-09-03T15:01:27;96813.00;;;19.60;77.08
28606;BME280;46498;49.968;7.754;2022-09-03T15:07:23;96806.00;;;19.24;78.80
28606;BME280;46498;49.968;7.754;2022-09-03T15:12:36;96821.00;;;19.49;78.01
28606;BME280;46498;49.968;7.754;2022-09-03T15:30:13;96842.00;;;19.19;79.84
28606;BME280;46498;49.968;7.754;2022-09-03T15:36:51;96841.00;;;18.99;81.41
28606;BME280;46498;49.968;7.754;2022-09-03T15:42:27;96883.00;;;18.32;76.59
28606;BME280;46498;49.968;7.754;2022-09-03T15:47:50;96887.00;;;16.48;94.81
28606;BME280;46498;49.968;7.754;2022-09-03T15:53:32;96907.00;;;15.57;100.00
28606;BME280;46498;49.968;7.754;2022-09-03T15:59:16;96912.00;;;15.61;100.00
28606;BME280;46498;49.968;7.754;2022-09-03T16:19:36;96883.00;;;16.75;100.00
28606;BME280;46498;49.968;7.754;2022-09-03T16:24:51;96854.00;;;17.55;100.00
28606;BME280;46498;49.968;7.754;2022-09-03T16:30:00;96843.00;;;17.65;100.00
28606;BME280;46498;49.968;7.754;2022-09-03T16:35:19;96838.00;;;17.79;100.00
28606;BME280;46498;49.968;7.754;2022-09-03T16:40:49;96841.00;;;17.77;100.00
28606;BME280;46498;49.968;7.754;2022-09-03T16:46:09;96852.00;;;17.88;100.00
28606;BME280;46498;49.968;7.754;2022-09-03T16:51:32;96844.00;;;17.86;100.00
28606;BME280;46498;49.968;7.754;2022-09-03T16:56:45;96843.00;;;17.96;100.00
28606;BME280;46498;49.968;7.754;2022-09-03T17:06:07;96841.00;;;17.91;100.00
28606;BME280;46498;49.968;7.754;2022-09-03T17:13:56;96848.00;;;17.81;100.00
28606;BME280;46498;49.968;7.754;2022-09-03T17:20:42;96845.00;;;17.62;100.00
28606;BME280;46498;49.968;7.754;2022-09-03T17:26:40;96855.00;;;17.54;100.00
28606;BME280;46498;49.968;7.754;2022-09-03T17:39:42;96864.00;;;16.92;100.00
28606;BME280;46498;49.968;7.754;2022-09-03T17:44:54;96862.00;;;16.72;100.00
28606;BME280;46498;49.968;7.754;2022-09-03T17:50:20;96869.00;;;16.80;100.00
28606;BME280;46498;49.968;7.754;2022-09-03T17:55:35;96884.00;;;16.72;100.00
28606;BME280;46498;49.968;7.754;2022-09-03T18:01:25;96894.00;;;16.59;100.00
28606;BME280;46498;49.968;7.754;2022-09-03T18:06:49;96889.00;;;16.40;100.00
28606;BME280;46498;49.968;7.754;2022-09-03T18:21:46;96909.00;;;15.80;100.00
28606;BME280;46498;49.968;7.754;2022-09-03T18:27:14;96918.00;;;15.70;100.00
28606;BME280;46498;49.968;7.754;2022-09-03T18:32:36;96920.00;;;15.61;100.00
28606;BME280;46498;49.968;7.754;2022-09-03T18:37:56;96926.00;;;15.50;100.00
28606;BME280;46498;49.968;7.754;2022-09-03T18:43:39;96927.00;;;15.56;100.00
28606;BME280;46498;49.968;7.754;2022-09-03T18:49:27;96933.00;;;15.48;100.00
28606;BME280;46498;49.968;7.754;2022-09-03T18:58:25;96942.00;;;15.71;100.00
28606;BME280;46498;49.968;7.754;2022-09-03T19:06:53;96946.00;;;15.74;100.00
28606;BME280;46498;49.968;7.754;2022-09-03T19:21:40;96955.00;;;15.48;100.00
28606;BME280;46498;49.968;7.754;2022-09-03T19:28:55;96979.00;;;15.56;100.00
28606;BME280;46498;49.968;7.754;2022-09-03T19:35:53;96979.00;;;15.56;100.00
28606;BME280;46498;49.968;7.754;2022-09-03T19:41:45;96984.00;;;15.67;100.00
28606;BME280;46498;49.968;7.754;2022-09-03T19:47:07;96997.00;;;15.46;100.00
28606;BME280;46498;49.968;7.754;2022-09-03T19:53:13;96982.00;;;15.12;100.00
28606;BME280;46498;49.968;7.754;2022-09-03T19:58:35;96990.00;;;15.13;100.00
28606;BME280;46498;49.968;7.754;2022-09-03T20:03:59;97001.00;;;15.03;100.00
28606;BME280;46498;49.968;7.754;2022-09-03T20:09:28;97003.00;;;15.10;100.00
28606;BME280;46498;49.968;7.754;2022-09-03T20:14:48;97007.00;;;15.09;100.00
28606;BME280;46498;49.968;7.754;2022-09-03T20:20:11;97029.00;;;15.23;100.00
28606;BME280;46498;49.968;7.754;2022-09-03T20:25:39;97036.00;;;15.31;100.00
28606;BME280;46498;49.968;7.754;2022-09-03T20:31:43;97039.00;;;15.29;100.00
28606;BME280;46498;49.968;7.754;2022-09-03T20:39:38;97038.00;;;15.23;100.00
28606;BME280;46498;49.968;7.754;2022-09-03T20:44:52;97031.00;;;15.12;100.00
28606;BME280;46498;49.968;7.754;2022-09-03T20:51:16;97027.00;;;15.27;100.00
28606;BME280;46498;49.968;7.754;2022-09-03T20:56:32;97030.00;;;15.21;100.00
28606;BME280;46498;49.968;7.754;2022-09-03T21:01:48;97026.00;;;15.32;100.00
28606;BME280;46498;49.968;7.754;2022-09-03T21:10:02;97025.00;;;15.29;100.00
28606;BME280;46498;49.968;7.754;2022-09-03T21:15:10;97037.00;;;15.32;100.00
28606;BME280;46498;49.968;7.754;2022-09-03T21:20:32;97038.00;;;15.23;100.00
28606;BME280;46498;49.968;7.754;2022-09-03T21:26:09;97047.00;;;15.27;100.00
28606;BME280;46498;49.968;7.754;2022-09-03T21:31:21;97034.00;;;15.31;100.00
28606;BME280;46498;49.968;7.754;2022-09-03T21:36:28;97047.00;;;15.31;100.00
28606;BME280;46498;49.968;7.754;2022-09-03T21:41:40;97048.00;;;15.28;100.00
28606;BME280;46498;49.968;7.754;2022-09-03T21:46:55;97046.00;;;15.26;100.00
28606;BME280;46498;49.968;7.754;2022-09-03T21:52:07;97049.00;;;15.07;100.00
28606;BME280;46498;49.968;7.754;2022-09-03T21:57:54;97047.00;;;14.83;100.00
28606;BME280;46498;49.968;7.754;2022-09-03T22:03:03;97056.00;;;14.82;100.00
28606;BME280;46498;49.968;7.754;2022-09-03T22:08:41;97060.00;;;14.79;100.00
28606;BME280;46498;49.968;7.754;2022-09-03T22:13:58;97058.00;;;14.73;100.00
28606;BME280;46498;49.968;7.754;2022-09-03T22:19:02;97061.00;;;14.76;100.00
28606;BME280;46498;49.968;7.754;2022-09-03T22:24:29;97068.00;;;14.77;100.00
28606;BME280;46498;49.968;7.754;2022-09-03T22:29:44;97062.00;;;14.57;100.00
28606;BME280;46498;49.968;7.754;2022-09-03T22:35:16;97059.00;;;14.76;100.00
28606;BME280;46498;49.968;7.754;2022-09-03T22:50:57;97055.00;;;14.26;100.00
28606;BME280;46498;49.968;7.754;2022-09-03T23:01:22;97063.00;;;13.94;100.00
28606;BME280;46498;49.968;7.754;2022-09-03T23:06:31;97066.00;;;13.84;100.00
28606;BME280;46498;49.968;7.754;2022-09-03T23:11:50;97072.00;;;14.00;100.00
28606;BME280;46498;49.968;7.754;2022-09-03T23:16:56;97075.00;;;14.19;100.00
28606;BME280;46498;49.968;7.754;2022-09-03T23:22:02;97079.00;;;14.13;100.00
28606;BME280;46498;49.968;7.754;2022-09-03T23:27:09;97083.00;;;14.08;100.00
28606;BME280;46498;49.968;7.754;2022-09-03T23:32:13;97086.00;;;14.34;100.00
28606;BME280;46498;49.968;7.754;2022-09-03T23:40:19;97087.00;;;14.25;100.00
28606;BME280;46498;49.968;7.754;2022-09-03T23:46:31;97101.00;;;14.08;100.00
28606;BME280;46498;49.968;7.754;2022-09-03T23:54:22;97105.00;;;14.21;100.00
